createdAt,value
2023-04-10T00:00:00.340Z,100657.97
2023-04-10T00:02:29.361Z,100650.00
2023-04-10T00:04:57.269Z,100657.34
2023-04-10T00:07:25.174Z,100653.66
2023-04-10T00:09:52.656Z,100647.56
2023-04-10T00:12:37.996Z,100642.34
2023-04-10T00:15:37.650Z,100643.59
2023-04-10T00:18:24.801Z,100636.84
2023-04-10T00:21:07.174Z,100633.03
2023-04-10T00:23:51.509Z,100633.00
2023-04-10T00:26:20.973Z,100624.25
2023-04-10T00:28:48.897Z,100631.34
2023-04-10T00:31:16.437Z,100627.78
2023-04-10T00:33:44.204Z,100634.25
2023-04-10T00:36:13.046Z,100630.63
2023-04-10T00:38:41.607Z,100621.72
2023-04-10T00:41:10.023Z,100626.87
2023-04-10T00:43:39.578Z,100626.00
2023-04-10T00:46:07.269Z,100632.31
2023-04-10T00:48:35.927Z,100623.53
2023-04-10T00:51:04.435Z,100621.53
2023-04-10T00:53:31.948Z,100622.31
2023-04-10T00:55:59.596Z,100627.56
2023-04-10T00:58:27.532Z,100620.50
2023-04-10T01:00:55.604Z,100621.22
2023-04-10T01:03:23.899Z,100625.34
2023-04-10T01:06:06.839Z,100616.28
2023-04-10T01:08:43.348Z,100623.66
2023-04-10T01:11:13.578Z,100615.69
2023-04-10T01:13:48.795Z,100618.25
2023-04-10T01:16:19.807Z,100609.63
2023-04-10T01:18:53.232Z,100607.94
2023-04-10T01:21:23.955Z,100611.50
2023-04-10T01:23:54.631Z,100607.75
2023-04-10T01:26:41.624Z,100602.56
2023-04-10T01:29:10.024Z,100606.22
2023-04-10T01:31:39.428Z,100605.19
2023-04-10T01:34:20.054Z,100604.25
2023-04-10T01:36:53.968Z,100605.00
2023-04-10T01:39:22.299Z,100595.19
2023-04-10T01:41:51.914Z,100604.84
2023-04-10T01:44:21.819Z,100598.75
2023-04-10T01:46:50.100Z,100596.91
2023-04-10T01:49:17.812Z,100594.31
2023-04-10T01:51:45.255Z,100597.81
2023-04-10T01:54:14.211Z,100604.81
2023-04-10T01:56:42.748Z,100603.69
2023-04-10T01:59:12.615Z,100604.47
2023-04-10T02:01:41.029Z,100603.03
2023-04-10T02:04:08.930Z,100600.19
2023-04-10T02:07:03.826Z,100596.87
2023-04-10T02:09:52.255Z,100599.34
2023-04-10T02:12:24.246Z,100595.84
2023-04-10T02:14:51.905Z,100598.41
2023-04-10T02:17:22.033Z,100605.25
2023-04-10T02:19:51.813Z,100602.06
2023-04-10T02:22:19.285Z,100604.75
2023-04-10T02:24:46.654Z,100601.06
2023-04-10T02:27:14.499Z,100597.63
2023-04-10T02:29:42.535Z,100600.25
2023-04-10T02:32:10.813Z,100601.91
2023-04-10T02:34:39.564Z,100597.00
2023-04-10T02:37:07.028Z,100596.47
2023-04-10T02:39:35.150Z,100588.28
2023-04-10T02:42:02.843Z,100589.16
2023-04-10T02:44:30.967Z,100588.22
2023-04-10T02:46:58.765Z,100581.22
2023-04-10T02:49:27.316Z,100582.03
2023-04-10T02:51:54.835Z,100576.97
2023-04-10T02:54:22.755Z,100569.09
2023-04-10T02:56:50.494Z,100577.09
2023-04-10T02:59:19.259Z,100576.59
2023-04-10T03:01:47.386Z,100582.00
2023-04-10T03:04:18.015Z,100576.91
2023-04-10T03:09:24.558Z,100575.19
2023-04-10T03:11:54.183Z,100581.41
2023-04-10T03:14:23.383Z,100574.69
2023-04-10T03:16:50.712Z,100578.78
2023-04-10T03:19:18.237Z,100576.22
2023-04-10T03:21:57.708Z,100577.38
2023-04-10T03:24:26.627Z,100569.47
2023-04-10T03:26:54.908Z,100575.44
2023-04-10T03:29:23.681Z,100567.62
2023-04-10T03:31:51.183Z,100562.34
2023-04-10T03:34:20.721Z,100564.00
2023-04-10T03:36:48.896Z,100562.50
2023-04-10T03:39:17.055Z,100567.62
2023-04-10T03:41:45.355Z,100565.84
2023-04-10T03:44:14.159Z,100577.38
2023-04-10T03:46:41.618Z,100571.31
2023-04-10T03:49:09.571Z,100579.19
2023-04-10T03:51:38.077Z,100575.84
2023-04-10T03:54:08.699Z,100582.75
2023-04-10T03:56:37.310Z,100580.22
2023-04-10T03:59:06.389Z,100579.34
2023-04-10T04:01:35.939Z,100586.41
2023-04-10T04:04:04.626Z,100577.81
2023-04-10T04:06:38.853Z,100587.38
2023-04-10T04:09:07.000Z,100589.16
2023-04-10T04:11:35.447Z,100593.34
2023-04-10T04:14:03.853Z,100584.59
2023-04-10T04:16:35.132Z,100577.59
2023-04-10T04:19:03.814Z,100590.78
2023-04-10T04:21:34.976Z,100590.69
2023-04-10T04:24:03.084Z,100595.38
2023-04-10T04:26:31.442Z,100591.72
2023-04-10T04:29:01.430Z,100593.41
2023-04-10T04:31:33.461Z,100593.41
2023-04-10T04:34:04.085Z,100591.84
2023-04-10T04:36:33.267Z,100595.38
2023-04-10T04:39:04.503Z,100596.19
2023-04-10T04:41:32.748Z,100600.66
2023-04-10T04:44:01.881Z,100592.84
2023-04-10T04:46:31.963Z,100602.19
2023-04-10T04:49:00.730Z,100604.66
2023-04-10T04:51:37.718Z,100608.97
2023-04-10T04:54:09.649Z,100612.50
2023-04-10T04:56:41.950Z,100606.00
2023-04-10T04:59:10.566Z,100606.16
2023-04-10T05:01:39.458Z,100603.63
2023-04-10T05:04:07.557Z,100605.25
2023-04-10T05:06:35.537Z,100612.91
2023-04-10T05:09:11.709Z,100622.56
2023-04-10T05:11:43.960Z,100626.00
2023-04-10T05:14:15.096Z,100624.28
2023-04-10T05:16:47.587Z,100627.44
2023-04-10T05:19:15.665Z,100631.06
2023-04-10T05:21:48.777Z,100622.22
2023-04-10T05:24:26.747Z,100627.31
2023-04-10T05:27:00.824Z,100626.34
2023-04-10T05:29:41.860Z,100620.06
2023-04-10T05:32:15.568Z,100628.94
2023-04-10T05:34:44.143Z,100626.19
2023-04-10T05:37:13.465Z,100632.50
2023-04-10T05:39:48.703Z,100632.00
2023-04-10T05:42:21.549Z,100634.25
2023-04-10T05:44:52.630Z,100629.12
2023-04-10T05:47:22.920Z,100630.31
2023-04-10T05:49:57.606Z,100633.03
2023-04-10T05:52:25.422Z,100613.97
2023-04-10T05:55:04.836Z,100626.06
2023-04-10T05:57:36.130Z,100626.28
2023-04-10T06:00:09.007Z,100622.25
2023-04-10T06:02:47.076Z,100617.31
2023-04-10T06:05:25.749Z,100620.59
2023-04-10T06:08:02.583Z,100622.84
2023-04-10T06:10:32.268Z,100617.25
2023-04-10T06:13:10.638Z,100615.06
2023-04-10T06:15:51.535Z,100618.06
2023-04-10T06:18:29.622Z,100614.78
2023-04-10T06:21:05.714Z,100606.31
2023-04-10T06:23:36.137Z,100614.09
2023-04-10T06:26:12.664Z,100621.50
2023-04-10T06:28:42.681Z,100609.91
2023-04-10T06:31:15.119Z,100612.19
2023-04-10T06:33:46.863Z,100608.44
2023-04-10T06:36:21.245Z,100607.06
2023-04-10T06:38:56.831Z,100613.72
2023-04-10T06:41:30.581Z,100608.62
2023-04-10T06:44:08.727Z,100608.78
2023-04-10T06:46:37.172Z,100606.91
2023-04-10T06:49:12.727Z,100597.59
2023-04-10T06:51:48.720Z,100596.13
2023-04-10T06:54:17.695Z,100598.12
2023-04-10T06:56:47.120Z,100598.62
2023-04-10T07:04:34.884Z,100589.03
2023-04-10T07:07:03.062Z,100591.69
2023-04-10T07:09:32.710Z,100593.03
2023-04-10T07:12:01.083Z,100597.59
2023-04-10T07:14:31.081Z,100592.34
2023-04-10T07:17:00.622Z,100593.81
2023-04-10T07:19:29.364Z,100592.00
2023-04-10T07:21:57.869Z,100585.25
2023-04-10T07:24:39.793Z,100584.00
2023-04-10T07:27:24.722Z,100586.66
2023-04-10T07:29:57.607Z,100590.66
2023-04-10T07:32:25.391Z,100588.16
2023-04-10T07:37:31.934Z,100586.13
2023-04-10T07:40:04.190Z,100599.34
2023-04-10T07:42:35.115Z,100590.16
2023-04-10T07:45:04.970Z,100584.69
2023-04-10T07:47:41.737Z,100581.03
2023-04-10T07:50:18.722Z,100575.03
2023-04-10T07:52:49.133Z,100572.25
2023-04-10T07:55:19.669Z,100563.81
2023-04-10T07:57:54.818Z,100566.37
2023-04-10T08:00:27.691Z,100561.59
2023-04-10T08:03:00.093Z,100547.53
2023-04-10T08:05:28.335Z,100554.12
2023-04-10T08:07:58.695Z,100549.22
2023-04-10T08:10:27.652Z,100544.84
2023-04-10T08:15:46.391Z,100546.56
2023-04-10T08:18:21.692Z,100540.53
2023-04-10T08:20:49.141Z,100540.00
2023-04-10T08:23:31.720Z,100538.81
2023-04-10T08:25:59.981Z,100525.31
2023-04-10T08:28:30.614Z,100532.37
2023-04-10T08:31:05.687Z,100533.22
2023-04-10T08:36:19.900Z,100532.84
2023-04-10T08:38:49.874Z,100528.56
2023-04-10T08:43:53.865Z,100520.25
2023-04-10T08:46:27.744Z,100526.25
2023-04-10T08:49:02.878Z,100526.69
2023-04-10T08:51:39.626Z,100519.34
2023-04-10T08:54:20.169Z,100531.78
2023-04-10T08:56:51.983Z,100529.88
2023-04-10T08:59:23.218Z,100527.34
2023-04-10T09:02:03.424Z,100522.56
2023-04-10T09:04:34.072Z,100530.09
2023-04-10T09:07:12.710Z,100522.19
2023-04-10T09:09:43.806Z,100524.84
2023-04-10T09:12:13.070Z,100516.41
2023-04-10T09:14:42.690Z,100519.69
2023-04-10T09:17:20.913Z,100515.63
2023-04-10T09:19:54.929Z,100507.66
2023-04-10T09:22:36.543Z,100499.34
2023-04-10T09:25:08.165Z,100497.69
2023-04-10T09:27:45.690Z,100492.13
2023-04-10T09:32:57.381Z,100485.06
2023-04-10T09:35:38.408Z,100501.69
2023-04-10T09:38:18.595Z,100493.81
2023-04-10T09:40:54.880Z,100500.78
2023-04-10T09:43:31.755Z,100489.78
2023-04-10T09:46:01.531Z,100488.25
2023-04-10T09:48:31.605Z,100490.53
2023-04-10T09:51:02.058Z,100487.09
2023-04-10T09:53:31.451Z,100485.53
2023-04-10T09:56:00.761Z,100485.66
2023-04-10T09:58:28.845Z,100474.19
2023-04-10T10:00:59.858Z,100474.78
2023-04-10T10:03:40.848Z,100475.81
2023-04-10T10:06:14.728Z,100466.78
2023-04-10T10:08:50.740Z,100466.88
2023-04-10T10:11:21.637Z,100464.41
2023-04-10T10:13:52.638Z,100464.06
2023-04-10T10:16:29.883Z,100457.66
2023-04-10T10:19:02.735Z,100460.56
2023-04-10T10:21:37.667Z,100454.75
2023-04-10T10:24:08.810Z,100456.94
2023-04-10T10:26:40.486Z,100455.72
2023-04-10T10:29:15.688Z,100455.81
2023-04-10T10:31:46.317Z,100449.56
2023-04-10T10:34:19.805Z,100457.41
2023-04-10T10:36:50.998Z,100447.41
2023-04-10T10:39:40.794Z,100450.19
2023-04-10T10:42:23.965Z,100451.97
2023-04-10T10:45:10.450Z,100447.56
2023-04-10T10:47:51.887Z,100445.56
2023-04-10T10:50:24.948Z,100453.56
2023-04-10T10:52:55.798Z,100451.31
2023-04-10T10:55:32.717Z,100449.06
2023-04-10T10:58:08.790Z,100441.69
2023-04-10T11:00:46.591Z,100448.75
2023-04-10T11:03:16.045Z,100453.87
2023-04-10T11:05:58.691Z,100457.75
2023-04-10T11:08:36.030Z,100460.31
2023-04-10T11:11:27.754Z,100457.84
2023-04-10T11:14:04.976Z,100455.16
2023-04-10T11:16:36.780Z,100448.50
2023-04-10T11:19:14.778Z,100444.66
2023-04-10T11:21:51.364Z,100443.28
2023-04-10T11:24:19.805Z,100434.31
2023-04-10T11:26:51.838Z,100437.56
2023-04-10T11:29:29.950Z,100430.91
2023-04-10T11:32:05.816Z,100436.31
2023-04-10T11:34:44.175Z,100430.41
2023-04-10T11:37:23.331Z,100426.31
2023-04-10T11:40:11.713Z,100416.97
2023-04-10T11:42:42.646Z,100415.63
2023-04-10T11:45:28.848Z,100421.66
2023-04-10T11:47:56.815Z,100424.69
2023-04-10T11:53:07.735Z,100422.78
2023-04-10T11:55:43.794Z,100426.78
2023-04-10T11:58:22.155Z,100434.19
2023-04-10T12:00:56.550Z,100428.09
2023-04-10T12:03:33.816Z,100424.34
2023-04-10T12:06:01.964Z,100426.06
2023-04-10T12:08:33.140Z,100414.31
2023-04-10T12:11:06.741Z,100408.84
2023-04-10T12:13:34.687Z,100410.63
2023-04-10T12:18:55.148Z,100404.84
2023-04-10T12:21:37.688Z,100413.25
2023-04-10T12:24:05.861Z,100408.88
2023-04-10T12:26:36.433Z,100412.44
2023-04-10T12:29:06.374Z,100416.69
2023-04-10T12:31:34.857Z,100416.31
2023-04-10T12:34:17.643Z,100403.37
2023-04-10T12:36:51.715Z,100404.22
2023-04-10T12:39:24.761Z,100402.91
2023-04-10T12:42:04.853Z,100403.59
2023-04-10T12:44:40.709Z,100397.88
2023-04-10T12:47:10.280Z,100392.59
2023-04-10T12:49:40.666Z,100388.66
2023-04-10T12:52:22.756Z,100390.56
2023-04-10T12:54:55.724Z,100391.56
2023-04-10T12:57:32.719Z,100379.84
2023-04-10T13:00:15.250Z,100376.53
2023-04-10T13:02:46.909Z,100373.00
2023-04-10T13:05:25.753Z,100362.06
2023-04-10T13:07:55.046Z,100356.06
2023-04-10T13:13:01.105Z,100352.37
2023-04-10T13:15:35.024Z,100344.84
2023-04-10T13:18:05.714Z,100340.84
2023-04-10T13:20:41.359Z,100332.72
2023-04-10T13:25:58.278Z,100327.50
2023-04-10T13:28:26.813Z,100319.72
2023-04-10T13:31:00.810Z,100317.53
2023-04-10T13:33:36.535Z,100310.69
2023-04-10T13:36:06.994Z,100310.91
2023-04-10T13:41:17.708Z,100295.28
2023-04-10T13:43:52.110Z,100299.38
2023-04-10T13:46:19.882Z,100287.75
2023-04-10T13:48:48.139Z,100279.19
2023-04-10T13:51:18.187Z,100277.50
2023-04-10T13:53:50.772Z,100274.22
2023-04-10T13:56:19.879Z,100282.44
2023-04-10T13:58:51.978Z,100274.13
2023-04-10T14:04:11.673Z,100263.84
2023-04-10T14:06:51.715Z,100257.25
2023-04-10T14:12:09.629Z,100246.84
2023-04-10T14:14:44.240Z,100251.28
2023-04-10T14:19:51.756Z,100235.62
2023-04-10T14:25:11.966Z,100232.12
2023-04-10T14:27:50.880Z,100227.69
2023-04-10T14:30:19.095Z,100230.28
2023-04-10T14:32:57.830Z,100227.25
2023-04-10T14:35:31.684Z,100219.69
2023-04-10T14:38:03.729Z,100218.91
2023-04-10T14:40:51.891Z,100208.84
2023-04-10T14:43:20.868Z,100218.50
2023-04-10T14:45:54.502Z,100205.84
2023-04-10T14:48:30.353Z,100208.19
2023-04-10T14:51:05.643Z,100206.94
2023-04-10T14:53:40.233Z,100201.34
2023-04-10T14:56:12.599Z,100194.69
2023-04-10T14:58:40.813Z,100180.16
2023-04-10T15:01:16.977Z,100192.81
2023-04-10T15:03:49.255Z,100196.25
2023-04-10T15:06:28.336Z,100192.00
2023-04-10T15:11:38.148Z,100179.19
2023-04-10T15:14:18.181Z,100176.34
2023-04-10T15:19:28.078Z,100170.88
2023-04-10T15:21:58.055Z,100168.31
2023-04-10T15:24:30.692Z,100170.13
2023-04-10T15:27:11.658Z,100159.75
2023-04-10T15:29:49.839Z,100157.25
2023-04-10T15:32:25.059Z,100154.72
2023-04-10T15:34:59.798Z,100160.75
2023-04-10T15:37:34.903Z,100149.56
2023-04-10T15:40:14.064Z,100154.06
2023-04-10T15:42:54.834Z,100144.69
2023-04-10T15:45:23.633Z,100141.69
2023-04-10T15:47:55.153Z,100141.34
2023-04-10T15:55:46.679Z,100132.41
2023-04-10T15:58:16.653Z,100136.13
2023-04-10T16:00:44.471Z,100130.12
2023-04-10T16:03:18.808Z,100129.75
2023-04-10T16:08:28.055Z,100127.56
2023-04-10T16:10:56.258Z,100128.56
2023-04-10T16:13:33.331Z,100120.41
2023-04-10T16:18:47.613Z,100121.59
2023-04-10T16:21:22.697Z,100119.38
2023-04-10T16:26:41.307Z,100120.50
2023-04-10T16:29:10.997Z,100119.38
2023-04-10T16:31:38.841Z,100117.09
2023-04-10T16:34:13.133Z,100114.75
2023-04-10T16:39:40.738Z,100111.87
2023-04-10T16:42:09.871Z,100116.69
2023-04-10T16:44:39.038Z,100104.94
2023-04-10T16:47:21.033Z,100109.72
2023-04-10T16:49:49.787Z,100108.59
2023-04-10T16:52:19.087Z,100107.19
2023-04-10T16:54:46.912Z,100105.81
2023-04-10T16:57:27.056Z,100105.16
2023-04-10T17:00:12.755Z,100111.91
2023-04-10T17:02:43.235Z,100112.75
2023-04-10T17:05:12.984Z,100109.84
2023-04-10T17:07:49.742Z,100103.47
2023-04-10T17:13:11.112Z,100097.87
2023-04-10T17:15:39.952Z,100101.97
2023-04-10T17:20:52.592Z,100104.09
2023-04-10T17:23:20.489Z,100110.38
2023-04-10T17:25:53.877Z,100095.13
2023-04-10T17:28:22.300Z,100102.06
2023-04-10T17:31:04.164Z,100101.31
2023-04-10T17:33:38.130Z,100100.88
2023-04-10T17:44:15.673Z,100105.06
2023-04-10T17:46:43.733Z,100102.28
2023-04-10T17:49:26.033Z,100108.28
2023-04-10T17:52:04.431Z,100116.94
2023-04-10T17:57:14.956Z,100121.97
2023-04-10T17:59:45.199Z,100119.25
2023-04-10T18:02:25.857Z,100117.56
2023-04-10T18:05:05.759Z,100137.03
2023-04-10T18:07:45.058Z,100130.81
2023-04-10T18:10:17.221Z,100126.97
2023-04-10T18:12:53.704Z,100123.94
2023-04-10T18:15:30.676Z,100127.09
2023-04-10T18:18:06.881Z,100115.94
2023-04-10T18:20:41.382Z,100127.56
2023-04-10T18:23:17.968Z,100127.47
2023-04-10T18:25:57.033Z,100123.75
2023-04-10T18:28:32.184Z,100120.16
2023-04-10T18:31:06.907Z,100119.66
2023-04-10T18:33:38.066Z,100124.75
2023-04-10T18:36:08.012Z,100124.87
2023-04-10T18:38:41.950Z,100118.47
2023-04-10T18:41:16.727Z,100127.25
2023-04-10T18:43:57.414Z,100132.19
2023-04-10T18:46:38.063Z,100127.44
2023-04-10T18:49:23.762Z,100130.28
2023-04-10T18:51:59.838Z,100140.75
2023-04-10T18:54:29.230Z,100139.84
2023-04-10T18:57:01.038Z,100147.44
2023-04-10T18:59:34.958Z,100150.13
2023-04-10T19:04:52.031Z,100143.44
2023-04-10T19:07:22.107Z,100146.09
2023-04-10T19:09:56.030Z,100143.22
2023-04-10T19:12:30.867Z,100147.16
2023-04-10T19:14:59.657Z,100148.19
2023-04-10T19:17:39.645Z,100145.72
2023-04-10T19:20:08.724Z,100152.41
2023-04-10T19:22:40.340Z,100156.41
2023-04-10T19:25:15.981Z,100168.25
2023-04-10T19:27:57.112Z,100172.66
2023-04-10T19:30:26.827Z,100173.53
2023-04-10T19:33:06.786Z,100175.34
2023-04-10T19:35:34.638Z,100179.69
2023-04-10T19:40:51.814Z,100177.00
2023-04-10T19:43:19.300Z,100175.47
2023-04-10T19:45:53.461Z,100169.22
2023-04-10T19:48:21.278Z,100168.84
2023-04-10T19:50:51.388Z,100162.97
2023-04-10T19:56:08.404Z,100149.00
2023-04-10T19:58:47.027Z,100156.09
2023-04-10T20:01:14.869Z,100149.19
2023-04-10T20:03:43.996Z,100151.63
2023-04-10T20:06:15.167Z,100156.41
2023-04-10T20:08:57.804Z,100161.91
2023-04-10T20:11:31.720Z,100156.56
2023-04-10T20:13:59.723Z,100153.09
2023-04-10T20:16:27.451Z,100147.72
2023-04-10T20:19:01.795Z,100143.03
2023-04-10T20:21:32.322Z,100138.75
2023-04-10T20:24:00.037Z,100135.47
2023-04-10T20:29:08.020Z,100129.88
2023-04-10T20:31:36.333Z,100126.91
2023-04-10T20:34:04.552Z,100116.00
2023-04-10T20:36:34.846Z,100118.72
2023-04-10T20:39:02.701Z,100115.25
2023-04-10T20:41:30.927Z,100117.28
2023-04-10T20:44:04.861Z,100119.84
2023-04-10T20:46:35.088Z,100119.50
2023-04-10T20:49:03.019Z,100116.88
2023-04-10T20:51:30.725Z,100114.31
2023-04-10T20:54:00.172Z,100118.34
2023-04-10T20:56:40.293Z,100117.50
2023-04-10T20:59:11.858Z,100123.34
2023-04-10T21:01:40.070Z,100118.19
2023-04-10T21:04:09.146Z,100131.53
2023-04-10T21:06:39.423Z,100118.59
2023-04-10T21:09:09.959Z,100121.16
2023-04-10T21:11:45.682Z,100123.38
2023-04-10T21:14:13.927Z,100111.66
2023-04-10T21:16:42.950Z,100118.75
2023-04-10T21:19:11.749Z,100107.12
2023-04-10T21:21:42.278Z,100121.75
2023-04-10T21:24:09.830Z,100119.78
2023-04-10T21:26:37.457Z,100110.00
2023-04-10T21:29:11.788Z,100118.16
2023-04-10T21:31:41.217Z,100109.34
2023-04-10T21:34:10.768Z,100107.88
2023-04-10T21:36:42.711Z,100107.25
2023-04-10T21:39:12.717Z,100103.84
2023-04-10T21:41:40.867Z,100102.03
2023-04-10T21:44:08.982Z,100096.94
2023-04-10T21:49:12.088Z,100117.94
2023-04-10T21:51:41.355Z,100109.38
2023-04-10T21:54:10.826Z,100108.09
2023-04-10T21:56:41.163Z,100094.03
2023-04-10T21:59:11.214Z,100092.31
2023-04-10T22:01:41.892Z,100095.25
2023-04-10T22:04:11.877Z,100092.03
2023-04-10T22:06:39.816Z,100084.00
2023-04-10T22:09:07.579Z,100094.78
2023-04-10T22:11:39.356Z,100092.56
2023-04-10T22:14:15.369Z,100094.25
2023-04-10T22:16:46.783Z,100091.75
2023-04-10T22:19:16.782Z,100085.38
2023-04-10T22:21:45.087Z,100090.66
2023-04-10T22:24:14.888Z,100088.44
2023-04-10T22:26:46.043Z,100078.88
2023-04-10T22:29:16.982Z,100080.91
2023-04-10T22:31:44.803Z,100082.72
2023-04-10T22:34:12.492Z,100077.84
2023-04-10T22:36:40.510Z,100076.31
2023-04-10T22:39:07.962Z,100073.69
2023-04-10T22:41:35.605Z,100080.25
2023-04-10T22:44:03.890Z,100084.16
2023-04-10T22:46:31.990Z,100077.63
2023-04-10T22:49:01.949Z,100088.00
2023-04-10T22:51:29.659Z,100090.84
2023-04-10T22:53:57.439Z,100083.97
2023-04-10T22:56:29.789Z,100082.06
2023-04-10T22:59:00.792Z,100076.31
2023-04-10T23:01:29.653Z,100075.44
2023-04-10T23:03:57.074Z,100075.03
2023-04-10T23:06:24.793Z,100076.44
2023-04-10T23:08:56.478Z,100066.38
2023-04-10T23:11:25.829Z,100058.72
2023-04-10T23:13:53.691Z,100064.22
2023-04-10T23:16:21.202Z,100064.19
2023-04-10T23:18:49.473Z,100061.06
2023-04-10T23:21:17.528Z,100063.34
2023-04-10T23:23:44.835Z,100055.28
2023-04-10T23:26:12.484Z,100058.44
2023-04-10T23:28:40.391Z,100057.47
2023-04-10T23:31:09.260Z,100057.47
2023-04-10T23:33:36.983Z,100049.00
2023-04-10T23:36:05.014Z,100058.78
2023-04-10T23:38:32.637Z,100048.75
2023-04-10T23:41:03.063Z,100052.56
2023-04-10T23:43:31.747Z,100054.47
2023-04-10T23:46:00.058Z,100044.94
2023-04-10T23:48:27.377Z,100055.16
2023-04-10T23:51:07.792Z,100041.63
2023-04-10T23:53:35.263Z,100051.59
2023-04-10T23:56:03.055Z,100039.41
2023-04-10T23:58:31.639Z,100032.91
